Montezuma, North Carolina
Current Conditions -  °F | °C
As of 11:15 PM on Wednesday 22 Oct 2014 (Local Time) from KTNB Reporting Station
Scattered Clouds Scattered Clouds  
Wind Chill: 36°   Ceiling: Unl
Heat Index: 41°   Visibility: 10mi
Dew Point: 34°   Wind: 8mph
Humidity: 75%   Direction: 300°WNW
Pressure: 30.13"   Gusts: 12mph
Location:  36.06°N, 81.9°W
Report Text: KTNB 230315Z AUTO 30007G10KT 270V340 10SM SCT017 SCT024 05/01 A3013 RMK AO2 T00520011
Loading
Personal Weather Stations






























Interactive Weather Map
Tropical Storm Tracking
New forecast layout! Learn more

10-Day Weather Forecast

Advertisements
Track Severe Weather on mobile